createdAt,value
2022-08-26T00:01:42.264Z,100928.38
2022-08-26T00:04:11.972Z,100927.91
2022-08-26T00:06:38.873Z,100921.94
2022-08-26T00:09:09.804Z,100928.16
2022-08-26T00:11:36.963Z,100921.94
2022-08-26T00:14:03.706Z,100916.63
2022-08-26T00:16:31.818Z,100924.19
2022-08-26T00:18:58.897Z,100918.75
2022-08-26T00:21:25.423Z,100918.81
2022-08-26T00:23:52.069Z,100916.25
2022-08-26T00:26:18.669Z,100922.09
2022-08-26T00:28:47.433Z,100913.16
2022-08-26T00:31:14.366Z,100918.22
2022-08-26T00:33:41.047Z,100913.91
2022-08-26T00:36:08.463Z,100903.13
2022-08-26T00:38:46.896Z,100910.34
2022-08-26T00:41:13.895Z,100907.16
2022-08-26T00:43:47.737Z,100909.06
2022-08-26T00:46:19.393Z,100905.13
2022-08-26T00:48:48.123Z,100905.56
2022-08-26T00:51:21.303Z,100904.22
2022-08-26T00:53:55.378Z,100902.69
2022-08-26T00:56:41.530Z,100898.00
2022-08-26T00:59:11.901Z,100905.50
2022-08-26T01:01:41.361Z,100901.94
2022-08-26T01:04:09.753Z,100903.28
2022-08-26T01:07:23.104Z,100898.13
2022-08-26T01:09:49.853Z,100907.16
2022-08-26T01:12:17.114Z,100907.16
2022-08-26T01:14:49.772Z,100903.22
2022-08-26T01:17:16.880Z,100900.41
2022-08-26T01:19:48.831Z,100903.72
2022-08-26T01:22:23.174Z,100901.69
2022-08-26T01:24:55.067Z,100905.13
2022-08-26T01:27:23.398Z,100902.53
2022-08-26T01:29:51.585Z,100905.69
2022-08-26T01:32:23.305Z,100901.78
2022-08-26T01:34:50.469Z,100891.97
2022-08-26T01:37:25.909Z,100895.28
2022-08-26T01:39:55.253Z,100891.47
2022-08-26T01:42:24.663Z,100894.72
2022-08-26T01:44:56.108Z,100895.25
2022-08-26T01:47:25.924Z,100886.31
2022-08-26T01:49:55.915Z,100883.13
2022-08-26T01:52:28.181Z,100885.94
2022-08-26T01:54:57.308Z,100885.25
2022-08-26T01:57:25.272Z,100880.53
2022-08-26T01:59:54.622Z,100878.22
2022-08-26T02:02:21.702Z,100874.25
2022-08-26T02:04:58.267Z,100884.78
2022-08-26T02:07:26.619Z,100883.88
2022-08-26T02:09:53.864Z,100882.59
2022-08-26T02:12:20.626Z,100873.06
2022-08-26T02:14:52.121Z,100874.53
2022-08-26T02:17:21.255Z,100881.31
2022-08-26T02:19:49.354Z,100869.69
2022-08-26T02:22:19.702Z,100873.94
2022-08-26T02:25:01.367Z,100869.06
2022-08-26T02:27:32.902Z,100872.69
2022-08-26T02:30:28.197Z,100872.28
2022-08-26T02:32:55.088Z,100873.56
2022-08-26T02:35:23.793Z,100875.66
2022-08-26T02:37:52.407Z,100865.28
2022-08-26T02:40:25.045Z,100867.09
2022-08-26T02:42:53.143Z,100873.63
2022-08-26T02:45:23.225Z,100864.59
2022-08-26T02:47:51.234Z,100866.88
2022-08-26T02:50:18.081Z,100861.25
2022-08-26T02:52:44.573Z,100862.19
2022-08-26T02:55:11.203Z,100864.28
2022-08-26T02:57:37.827Z,100856.28
2022-08-26T03:00:07.927Z,100862.84
2022-08-26T03:02:34.809Z,100858.06
2022-08-26T03:05:02.198Z,100861.25
2022-08-26T03:07:29.980Z,100857.63
2022-08-26T03:09:57.675Z,100853.50
2022-08-26T03:12:24.237Z,100860.22
2022-08-26T03:14:52.891Z,100859.16
2022-08-26T03:17:19.475Z,100856.41
2022-08-26T03:19:45.952Z,100855.22
2022-08-26T03:22:12.434Z,100844.06
2022-08-26T03:24:41.274Z,100852.09
2022-08-26T03:27:12.857Z,100848.16
2022-08-26T03:29:59.655Z,100841.13
2022-08-26T03:32:26.989Z,100846.53
2022-08-26T03:34:54.345Z,100846.38
2022-08-26T03:37:21.610Z,100845.50
2022-08-26T03:39:48.489Z,100838.59
2022-08-26T03:42:15.139Z,100837.00
2022-08-26T03:44:41.980Z,100830.81
2022-08-26T03:47:09.020Z,100841.69
2022-08-26T03:49:35.910Z,100844.50
2022-08-26T03:52:03.608Z,100839.09
2022-08-26T03:54:30.306Z,100841.50
2022-08-26T03:56:56.799Z,100831.38
2022-08-26T03:59:23.519Z,100835.25
2022-08-26T04:01:51.130Z,100835.16
2022-08-26T04:04:18.181Z,100829.94
2022-08-26T04:06:50.175Z,100827.88
2022-08-26T04:09:20.777Z,100822.88
2022-08-26T04:11:50.738Z,100818.00
2022-08-26T04:14:20.421Z,100821.09
2022-08-26T04:16:47.576Z,100827.38
2022-08-26T04:19:15.720Z,100833.44
2022-08-26T04:21:42.599Z,100832.19
2022-08-26T04:24:12.243Z,100833.06
2022-08-26T04:26:42.867Z,100825.97
2022-08-26T04:29:18.016Z,100828.38
2022-08-26T04:31:46.898Z,100827.94
2022-08-26T04:34:15.120Z,100837.50
2022-08-26T04:36:43.080Z,100833.56
2022-08-26T04:39:12.239Z,100827.38
2022-08-26T04:41:39.585Z,100825.84
2022-08-26T04:44:07.164Z,100825.31
2022-08-26T04:46:33.913Z,100822.59
2022-08-26T04:49:00.466Z,100824.75
2022-08-26T04:51:30.039Z,100821.06
2022-08-26T04:53:57.966Z,100828.06
2022-08-26T04:56:26.618Z,100818.06
2022-08-26T04:58:53.532Z,100831.44
2022-08-26T05:01:21.362Z,100830.34
2022-08-26T05:03:50.836Z,100829.31
2022-08-26T05:06:19.386Z,100833.81
2022-08-26T05:08:46.714Z,100832.53
2022-08-26T05:11:13.523Z,100837.25
2022-08-26T05:13:40.365Z,100829.94
2022-08-26T05:16:11.563Z,100827.22
2022-08-26T05:18:39.517Z,100836.63
2022-08-26T05:21:07.435Z,100837.63
2022-08-26T05:23:35.957Z,100851.84
2022-08-26T05:26:02.501Z,100842.16
2022-08-26T05:28:31.678Z,100842.03
2022-08-26T05:30:58.675Z,100852.69
2022-08-26T05:33:25.234Z,100850.19
2022-08-26T05:35:51.865Z,100850.38
2022-08-26T05:38:20.750Z,100853.00
2022-08-26T05:40:52.909Z,100851.66
2022-08-26T05:43:21.268Z,100847.28
2022-08-26T05:45:49.986Z,100849.81
2022-08-26T05:48:18.946Z,100842.81
2022-08-26T05:50:52.237Z,100846.34
2022-08-26T05:53:21.720Z,100846.59
2022-08-26T05:55:52.258Z,100846.13
2022-08-26T05:58:21.665Z,100848.88
2022-08-26T06:01:00.674Z,100842.53
2022-08-26T06:03:28.290Z,100850.44
2022-08-26T06:05:55.258Z,100839.03
2022-08-26T06:08:21.799Z,100840.72
2022-08-26T06:10:49.060Z,100844.41
2022-08-26T06:13:19.460Z,100848.19
2022-08-26T06:15:48.760Z,100842.59
2022-08-26T06:18:18.517Z,100849.28
2022-08-26T06:20:57.427Z,100851.84
2022-08-26T06:23:45.066Z,100844.72
2022-08-26T06:26:12.493Z,100838.63
2022-08-26T06:28:39.126Z,100833.50
2022-08-26T06:31:06.222Z,100839.06
2022-08-26T06:33:33.506Z,100845.59
2022-08-26T06:36:01.118Z,100835.00
2022-08-26T06:38:28.428Z,100840.53
2022-08-26T06:40:55.401Z,100844.00
2022-08-26T06:43:25.750Z,100839.38
2022-08-26T06:45:59.696Z,100841.22
2022-08-26T06:48:26.262Z,100837.16
2022-08-26T06:51:04.238Z,100853.09
2022-08-26T06:53:30.821Z,100835.03
2022-08-26T06:55:57.355Z,100839.53
2022-08-26T06:58:23.978Z,100835.28
2022-08-26T07:00:51.256Z,100834.44
2022-08-26T07:03:18.350Z,100836.78
2022-08-26T07:05:44.893Z,100834.28
2022-08-26T07:08:11.984Z,100829.09
2022-08-26T07:10:38.759Z,100835.56
2022-08-26T07:13:06.020Z,100837.16
2022-08-26T07:15:36.170Z,100834.53
2022-08-26T07:18:03.017Z,100827.09
2022-08-26T07:20:29.571Z,100827.66
2022-08-26T07:22:56.127Z,100834.31
2022-08-26T07:25:22.640Z,100831.22
2022-08-26T07:27:54.299Z,100830.41
2022-08-26T07:30:21.475Z,100827.66
2022-08-26T07:32:48.230Z,100827.63
2022-08-26T07:35:15.037Z,100823.84
2022-08-26T07:37:42.680Z,100820.13
2022-08-26T07:40:09.605Z,100821.94
2022-08-26T07:42:36.234Z,100826.19
2022-08-26T07:45:02.868Z,100820.03
2022-08-26T07:47:29.481Z,100814.50
2022-08-26T07:49:57.557Z,100813.50
2022-08-26T07:52:27.437Z,100816.94
2022-08-26T07:54:56.369Z,100813.50
2022-08-26T07:57:24.211Z,100812.41
2022-08-26T07:59:51.057Z,100817.63
2022-08-26T08:02:17.645Z,100819.75
2022-08-26T08:04:44.296Z,100819.00
2022-08-26T08:07:11.587Z,100812.69
2022-08-26T08:09:38.612Z,100810.44
2022-08-26T08:12:07.415Z,100813.50
2022-08-26T08:14:36.428Z,100815.97
2022-08-26T08:17:04.465Z,100818.47
2022-08-26T08:19:36.698Z,100813.47
2022-08-26T08:22:17.500Z,100804.94
2022-08-26T08:24:44.835Z,100807.94
2022-08-26T08:27:11.314Z,100810.47
2022-08-26T08:29:38.683Z,100814.31
2022-08-26T08:32:05.581Z,100808.53
2022-08-26T08:34:37.939Z,100806.31
2022-08-26T08:37:08.677Z,100800.75
2022-08-26T08:39:37.246Z,100801.50
2022-08-26T08:42:07.718Z,100792.97
2022-08-26T08:44:39.853Z,100797.78
2022-08-26T08:47:25.030Z,100794.97
2022-08-26T08:49:54.585Z,100788.09
2022-08-26T08:52:35.205Z,100789.50
2022-08-26T08:55:11.044Z,100779.53
2022-08-26T08:57:55.701Z,100789.50
2022-08-26T09:00:39.858Z,100788.38
2022-08-26T09:03:32.239Z,100780.72
2022-08-26T09:06:01.599Z,100777.00
2022-08-26T09:08:35.739Z,100778.38
2022-08-26T09:11:04.371Z,100777.09
2022-08-26T09:13:31.761Z,100779.00
2022-08-26T09:16:07.286Z,100769.06
2022-08-26T09:18:55.370Z,100779.25
2022-08-26T09:21:25.274Z,100773.50
2022-08-26T09:23:55.643Z,100773.47
2022-08-26T09:26:38.468Z,100775.38
2022-08-26T09:29:13.853Z,100775.97
2022-08-26T09:31:41.424Z,100770.38
2022-08-26T09:34:22.142Z,100772.88
2022-08-26T09:36:59.587Z,100764.63
2022-08-26T09:39:26.065Z,100770.47
2022-08-26T09:42:25.580Z,100767.09
2022-08-26T09:45:00.121Z,100763.41
2022-08-26T09:47:46.749Z,100761.50
2022-08-26T09:50:29.355Z,100761.13
2022-08-26T09:53:20.991Z,100752.88
2022-08-26T09:56:17.675Z,100755.88
2022-08-26T09:58:47.264Z,100733.16
2022-08-26T10:01:40.163Z,100734.56
2022-08-26T10:04:27.112Z,100727.13
2022-08-26T10:07:03.307Z,100724.94
2022-08-26T10:09:40.522Z,100713.31
2022-08-26T10:12:21.756Z,100715.84
2022-08-26T10:14:54.400Z,100704.31
2022-08-26T10:17:39.067Z,100698.47
2022-08-26T10:20:23.308Z,100683.69
2022-08-26T10:22:58.676Z,100670.81
2022-08-26T10:25:33.182Z,100676.28
2022-08-26T10:28:06.778Z,100669.00
2022-08-26T10:30:58.261Z,100671.25
2022-08-26T10:33:25.450Z,100668.63
2022-08-26T10:36:05.264Z,100663.38
2022-08-26T10:38:40.385Z,100664.03
2022-08-26T10:41:16.810Z,100662.47
2022-08-26T10:43:54.077Z,100659.56
2022-08-26T10:46:27.115Z,100651.47
2022-08-26T10:49:06.594Z,100644.50
2022-08-26T10:51:42.023Z,100647.31
2022-08-26T10:54:16.451Z,100638.75
2022-08-26T10:57:30.522Z,100631.72
2022-08-26T11:00:23.828Z,100624.97
2022-08-26T11:03:03.205Z,100622.97
2022-08-26T11:05:29.980Z,100618.75
2022-08-26T11:08:21.592Z,100612.53
2022-08-26T11:10:59.464Z,100618.81
2022-08-26T11:13:57.207Z,100629.31
2022-08-26T11:16:44.393Z,100618.88
2022-08-26T11:19:59.560Z,100614.47
2022-08-26T11:22:36.249Z,100611.06
2022-08-26T11:25:07.710Z,100614.31
2022-08-26T11:27:38.423Z,100607.25
2022-08-26T11:30:15.755Z,100592.38
2022-08-26T11:32:50.614Z,100582.72
2022-08-26T11:35:17.186Z,100578.84
2022-08-26T11:37:51.266Z,100590.16
2022-08-26T11:40:22.212Z,100595.19
2022-08-26T11:42:59.584Z,100606.75
2022-08-26T11:46:00.822Z,100621.59
2022-08-26T11:48:28.887Z,100623.53
2022-08-26T11:51:02.444Z,100616.00
2022-08-26T11:53:32.541Z,100609.84
2022-08-26T11:56:04.265Z,100615.28
2022-08-26T11:58:31.936Z,100615.81
2022-08-26T12:01:01.896Z,100646.88
2022-08-26T12:03:38.818Z,100662.03
2022-08-26T12:06:22.892Z,100669.63
2022-08-26T12:08:50.300Z,100661.16
2022-08-26T12:11:25.966Z,100648.69
2022-08-26T12:14:25.998Z,100642.00
2022-08-26T12:16:54.526Z,100650.16
2022-08-26T12:19:33.463Z,100656.31
2022-08-26T12:22:22.196Z,100661.31
2022-08-26T12:24:53.595Z,100648.31
2022-08-26T12:27:34.438Z,100648.47
2022-08-26T12:30:13.877Z,100659.53
2022-08-26T12:32:55.127Z,100684.59
2022-08-26T12:35:25.697Z,100702.44
2022-08-26T12:37:53.924Z,100704.19
2022-08-26T12:40:44.007Z,100700.75
2022-08-26T12:43:14.492Z,100706.63
2022-08-26T12:45:59.872Z,100693.19
2022-08-26T12:48:30.463Z,100694.75
2022-08-26T12:50:58.059Z,100695.06
2022-08-26T12:53:27.840Z,100699.25
2022-08-26T12:56:01.489Z,100702.47
2022-08-26T12:58:34.040Z,100716.13
2022-08-26T13:01:00.626Z,100711.34
2022-08-26T13:03:45.456Z,100704.94
2022-08-26T13:06:22.176Z,100697.81
2022-08-26T13:08:51.693Z,100698.84
2022-08-26T13:11:44.932Z,100709.94
2022-08-26T13:14:24.162Z,100724.47
2022-08-26T13:16:51.986Z,100721.16
2022-08-26T13:19:21.889Z,100723.22
2022-08-26T13:21:54.719Z,100708.78
2022-08-26T13:24:26.162Z,100695.88
2022-08-26T13:26:52.549Z,100686.78
2022-08-26T13:29:19.458Z,100674.06
2022-08-26T13:31:46.763Z,100651.50
2022-08-26T13:34:18.005Z,100658.31
2022-08-26T13:36:45.141Z,100663.53
2022-08-26T13:39:12.055Z,100648.81
2022-08-26T13:41:38.807Z,100642.63
2022-08-26T13:44:05.982Z,100644.78
2022-08-26T13:46:32.764Z,100628.63
2022-08-26T13:48:59.499Z,100615.69
2022-08-26T13:51:27.471Z,100622.72
2022-08-26T13:53:54.420Z,100631.00
2022-08-26T13:56:21.603Z,100632.09
2022-08-26T13:58:48.221Z,100634.81
2022-08-26T14:01:17.414Z,100633.03
2022-08-26T14:03:44.030Z,100631.59
2022-08-26T14:06:10.848Z,100635.75
2022-08-26T14:08:38.972Z,100654.03
2022-08-26T14:11:06.278Z,100675.97
2022-08-26T14:13:32.816Z,100716.50
2022-08-26T14:16:01.440Z,100725.50
2022-08-26T14:18:33.338Z,100726.19
2022-08-26T14:21:00.261Z,100740.78
2022-08-26T14:23:27.633Z,100731.78
2022-08-26T14:25:54.171Z,100751.09
2022-08-26T14:28:20.738Z,100776.63
2022-08-26T14:30:57.129Z,100746.88
2022-08-26T14:33:27.239Z,100718.69
2022-08-26T14:36:13.671Z,100698.69
2022-08-26T14:38:40.144Z,100676.28
2022-08-26T14:41:06.606Z,100652.50
2022-08-26T14:43:33.550Z,100641.59
2022-08-26T14:46:01.027Z,100647.22
2022-08-26T14:48:27.512Z,100650.81
2022-08-26T14:50:53.984Z,100655.84
2022-08-26T14:53:38.767Z,100622.97
2022-08-26T14:56:05.502Z,100580.19
2022-08-26T14:58:34.918Z,100529.13
2022-08-26T15:01:04.187Z,100546.94
2022-08-26T15:03:30.943Z,100552.19
2022-08-26T15:05:57.873Z,100541.94
2022-08-26T15:08:24.459Z,100541.59
2022-08-26T15:10:51.036Z,100455.63
2022-08-26T15:13:17.506Z,100507.66
2022-08-26T15:15:44.176Z,100499.00
2022-08-26T15:18:10.846Z,100495.09
2022-08-26T15:20:37.369Z,100512.72
2022-08-26T15:23:06.463Z,100504.72
2022-08-26T15:25:33.029Z,100514.66
2022-08-26T15:27:59.521Z,100512.41
2022-08-26T15:30:25.988Z,100515.63
2022-08-26T15:32:52.571Z,100521.69
2022-08-26T15:35:19.202Z,100532.16
2022-08-26T15:37:45.715Z,100527.31
2022-08-26T15:40:12.367Z,100511.81
2022-08-26T15:42:39.368Z,100511.56
2022-08-26T15:45:06.296Z,100504.63
2022-08-26T15:47:32.837Z,100504.75
2022-08-26T15:50:15.093Z,100509.00
2022-08-26T15:52:41.933Z,100488.25
2022-08-26T15:55:09.253Z,100499.91
2022-08-26T15:57:35.822Z,100489.34
2022-08-26T16:00:02.764Z,100484.72
2022-08-26T16:02:32.201Z,100481.50
2022-08-26T16:05:00.170Z,100475.34
2022-08-26T16:07:26.649Z,100489.66
2022-08-26T16:09:54.607Z,100490.81
2022-08-26T16:12:21.730Z,100495.16
2022-08-26T16:14:51.342Z,100497.97
2022-08-26T16:17:19.453Z,100500.25
2022-08-26T16:19:46.121Z,100508.09
2022-08-26T16:22:12.719Z,100510.66
2022-08-26T16:24:39.533Z,100502.94
2022-08-26T16:27:05.993Z,100497.53
2022-08-26T16:29:32.638Z,100495.38
2022-08-26T16:31:59.106Z,100494.47
2022-08-26T16:34:25.620Z,100504.06
2022-08-26T16:36:52.152Z,100500.03
2022-08-26T16:39:18.708Z,100501.34
2022-08-26T16:41:45.271Z,100508.34
2022-08-26T16:44:12.261Z,100518.66
2022-08-26T16:46:39.696Z,100532.19
2022-08-26T16:49:06.481Z,100531.34
2022-08-26T16:51:37.831Z,100523.44
2022-08-26T16:54:07.097Z,100529.25
2022-08-26T16:56:34.540Z,100538.97
2022-08-26T16:59:04.065Z,100540.16
2022-08-26T17:01:30.541Z,100547.97
2022-08-26T17:03:57.207Z,100547.97
2022-08-26T17:06:23.845Z,100537.28
2022-08-26T17:08:50.384Z,100551.59
2022-08-26T17:11:17.033Z,100552.50
2022-08-26T17:13:43.671Z,100544.53
2022-08-26T17:16:14.481Z,100551.69
2022-08-26T17:18:41.242Z,100555.47
2022-08-26T17:21:10.332Z,100550.81
2022-08-26T17:23:37.796Z,100558.63
2022-08-26T17:26:04.873Z,100562.06
2022-08-26T17:28:32.285Z,100550.97
2022-08-26T17:30:59.526Z,100549.88
2022-08-26T17:33:26.561Z,100546.97
2022-08-26T17:35:53.769Z,100551.09
2022-08-26T17:38:23.711Z,100540.16
2022-08-26T17:40:50.298Z,100546.53
2022-08-26T17:43:17.872Z,100540.59
2022-08-26T17:45:44.407Z,100549.25
2022-08-26T17:48:11.224Z,100538.72
2022-08-26T17:50:41.399Z,100539.31
2022-08-26T17:53:08.362Z,100537.34
2022-08-26T17:55:41.606Z,100529.66
2022-08-26T17:58:11.717Z,100541.16
2022-08-26T18:00:50.921Z,100526.44
2022-08-26T18:03:19.070Z,100526.91
2022-08-26T18:05:50.757Z,100522.69
2022-08-26T18:08:17.368Z,100528.59
2022-08-26T18:10:44.701Z,100528.34
2022-08-26T18:13:11.674Z,100526.56
2022-08-26T18:15:39.732Z,100532.63
2022-08-26T18:18:06.341Z,100521.47
2022-08-26T18:20:32.854Z,100517.78
2022-08-26T18:22:59.354Z,100525.00
2022-08-26T18:25:26.026Z,100519.44
2022-08-26T18:27:52.478Z,100517.91
2022-08-26T18:30:21.179Z,100527.25
2022-08-26T18:32:49.214Z,100526.28
2022-08-26T18:35:16.431Z,100523.72
2022-08-26T18:37:44.353Z,100522.19
2022-08-26T18:40:13.444Z,100527.63
2022-08-26T18:42:41.305Z,100515.16
2022-08-26T18:45:08.726Z,100508.06
2022-08-26T18:47:36.068Z,100497.00
2022-08-26T18:50:04.502Z,100491.56
2022-08-26T18:52:31.897Z,100490.38
2022-08-26T18:54:59.452Z,100493.13
2022-08-26T18:57:25.948Z,100489.81
2022-08-26T18:59:52.419Z,100479.59
2022-08-26T19:02:19.078Z,100480.19
2022-08-26T19:04:45.629Z,100490.63
2022-08-26T19:07:12.090Z,100490.72
2022-08-26T19:09:38.582Z,100499.50
2022-08-26T19:12:05.505Z,100505.97
2022-08-26T19:14:32.490Z,100517.97
2022-08-26T19:16:59.278Z,100522.19
2022-08-26T19:19:25.873Z,100525.91
2022-08-26T19:21:53.070Z,100545.06
2022-08-26T19:24:20.980Z,100542.41
2022-08-26T19:26:51.357Z,100546.56
2022-08-26T19:29:31.907Z,100552.38
2022-08-26T19:31:59.196Z,100564.28
2022-08-26T19:34:26.254Z,100565.16
2022-08-26T19:36:54.063Z,100565.13
2022-08-26T19:39:21.285Z,100570.19
2022-08-26T19:41:47.895Z,100572.09
2022-08-26T19:44:39.425Z,100575.50
2022-08-26T19:47:08.384Z,100573.44
2022-08-26T19:49:35.425Z,100583.38
2022-08-26T19:52:03.024Z,100586.09
2022-08-26T19:54:29.943Z,100586.66
2022-08-26T19:56:56.808Z,100591.53
2022-08-26T19:59:23.347Z,100581.00
2022-08-26T20:02:00.427Z,100579.50
2022-08-26T20:04:27.868Z,100588.63
2022-08-26T20:06:57.689Z,100591.66
2022-08-26T20:09:25.331Z,100581.69
2022-08-26T20:12:13.226Z,100581.69
2022-08-26T20:14:39.756Z,100579.28
2022-08-26T20:17:06.992Z,100577.00
2022-08-26T20:19:53.097Z,100584.78
2022-08-26T20:22:20.604Z,100589.16
2022-08-26T20:24:48.437Z,100588.34
2022-08-26T20:27:15.494Z,100586.44
2022-08-26T20:29:43.022Z,100591.44
2022-08-26T20:32:10.031Z,100582.44
2022-08-26T20:34:38.087Z,100580.31
2022-08-26T20:37:05.134Z,100586.00
2022-08-26T20:39:31.611Z,100580.56
2022-08-26T20:41:58.536Z,100595.44
2022-08-26T20:44:25.817Z,100594.47
2022-08-26T20:46:52.346Z,100600.94
2022-08-26T20:49:19.064Z,100602.41
2022-08-26T20:51:48.266Z,100605.47
2022-08-26T20:54:15.459Z,100607.81
2022-08-26T20:56:42.052Z,100608.59
2022-08-26T20:59:09.346Z,100608.34
2022-08-26T21:01:42.093Z,100619.47
2022-08-26T21:04:12.654Z,100617.13
2022-08-26T21:06:39.496Z,100617.53
2022-08-26T21:09:10.799Z,100606.47
2022-08-26T21:11:38.780Z,100612.13
2022-08-26T21:14:06.922Z,100600.47
2022-08-26T21:16:43.436Z,100596.19
2022-08-26T21:19:13.049Z,100591.56
2022-08-26T21:21:40.787Z,100597.25
2022-08-26T21:24:08.145Z,100599.59
2022-08-26T21:26:34.833Z,100596.19
2022-08-26T21:29:01.639Z,100602.47
2022-08-26T21:31:29.595Z,100599.34
2022-08-26T21:33:56.525Z,100594.53
2022-08-26T21:36:23.019Z,100591.41
2022-08-26T21:38:49.586Z,100588.53
2022-08-26T21:41:21.889Z,100585.94
2022-08-26T21:43:50.131Z,100584.63
2022-08-26T21:46:20.154Z,100586.06
2022-08-26T21:48:50.979Z,100588.53
2022-08-26T21:51:20.487Z,100583.72
2022-08-26T21:53:47.184Z,100590.63
2022-08-26T21:56:16.036Z,100591.06
2022-08-26T21:58:42.730Z,100591.28
2022-08-26T22:01:12.125Z,100594.09
2022-08-26T22:03:46.797Z,100599.84
2022-08-26T22:06:14.044Z,100602.09
2022-08-26T22:08:40.516Z,100613.72
2022-08-26T22:11:07.050Z,100609.94
2022-08-26T22:13:37.848Z,100608.28
2022-08-26T22:16:05.705Z,100612.84
2022-08-26T22:18:32.843Z,100602.63
2022-08-26T22:21:02.719Z,100608.59
2022-08-26T22:23:30.242Z,100590.22
2022-08-26T22:25:58.247Z,100588.16
2022-08-26T22:28:25.115Z,100579.56
2022-08-26T22:30:52.477Z,100583.72
2022-08-26T22:33:19.325Z,100567.84
2022-08-26T22:35:48.478Z,100555.34
2022-08-26T22:38:15.593Z,100553.25
2022-08-26T22:40:48.410Z,100546.44
2022-08-26T22:43:15.278Z,100545.97
2022-08-26T22:45:46.795Z,100537.25
2022-08-26T22:48:15.519Z,100537.69
2022-08-26T22:50:43.340Z,100531.41
2022-08-26T22:53:10.070Z,100521.22
2022-08-26T22:55:36.796Z,100512.34
2022-08-26T22:58:03.627Z,100500.25
2022-08-26T23:00:32.426Z,100491.66
2022-08-26T23:02:59.950Z,100491.47
2022-08-26T23:05:26.510Z,100494.69
2022-08-26T23:07:53.913Z,100491.59
2022-08-26T23:10:20.727Z,100497.78
2022-08-26T23:12:47.213Z,100495.56
2022-08-26T23:15:13.818Z,100494.69
2022-08-26T23:17:40.852Z,100497.44
2022-08-26T23:20:11.613Z,100517.31
2022-08-26T23:22:39.714Z,100523.53
2022-08-26T23:25:08.351Z,100541.38
2022-08-26T23:27:38.921Z,100539.84
2022-08-26T23:30:07.867Z,100529.13
2022-08-26T23:32:34.389Z,100534.59
2022-08-26T23:35:00.919Z,100531.34
2022-08-26T23:37:37.086Z,100535.00
2022-08-26T23:40:10.876Z,100533.28
2022-08-26T23:42:38.274Z,100537.63
2022-08-26T23:45:09.985Z,100541.31
2022-08-26T23:47:36.628Z,100531.06
2022-08-26T23:50:04.195Z,100530.34
2022-08-26T23:52:49.365Z,100533.91
2022-08-26T23:55:15.840Z,100533.91
2022-08-26T23:57:42.640Z,100532.72
